createdAt,value
2022-10-30T00:01:24.082Z,6.88
2022-10-30T00:03:52.606Z,6.35
2022-10-30T00:06:21.030Z,7.45
2022-10-30T00:08:49.210Z,7.72
2022-10-30T00:11:17.418Z,7.72
2022-10-30T00:13:50.046Z,10.23
2022-10-30T00:16:18.260Z,9.98
2022-10-30T00:18:46.447Z,11.20
2022-10-30T00:21:16.914Z,8.48
2022-10-30T00:23:48.158Z,8.50
2022-10-30T00:26:17.254Z,8.30
2022-10-30T00:28:50.714Z,8.05
2022-10-30T00:31:19.122Z,7.80
2022-10-30T00:33:51.447Z,10.80
2022-10-30T00:36:20.058Z,9.38
2022-10-30T00:38:48.406Z,9.70
2022-10-30T00:41:17.559Z,8.77
2022-10-30T00:43:47.919Z,9.85
2022-10-30T00:46:22.542Z,9.30
2022-10-30T00:48:57.094Z,8.73
2022-10-30T00:51:26.247Z,8.35
2022-10-30T00:53:54.968Z,8.73
2022-10-30T00:56:24.600Z,9.00
2022-10-30T00:58:59.163Z,9.90
2022-10-30T01:01:30.374Z,16.33
2022-10-30T01:04:01.469Z,22.58
2022-10-30T01:06:31.450Z,26.80
2022-10-30T01:09:00.749Z,23.65
2022-10-30T01:11:29.287Z,24.30
2022-10-30T01:14:02.562Z,24.17
2022-10-30T01:16:59.324Z,22.48
2022-10-30T01:19:36.054Z,17.70
2022-10-30T01:22:23.686Z,17.05
2022-10-30T01:25:05.601Z,21.98
2022-10-30T01:27:43.175Z,22.95
2022-10-30T01:30:31.227Z,21.55
2022-10-30T01:33:15.804Z,22.40
2022-10-30T01:35:53.584Z,18.73
2022-10-30T01:38:27.501Z,21.77
2022-10-30T01:40:56.181Z,20.63
2022-10-30T01:43:24.490Z,19.45
2022-10-30T01:46:23.558Z,19.20
2022-10-30T01:49:35.585Z,24.15
2022-10-30T01:52:14.556Z,24.33
2022-10-30T01:54:51.998Z,21.20
2022-10-30T01:57:34.975Z,17.52
2022-10-30T02:00:08.223Z,16.63
2022-10-30T02:02:38.177Z,16.65
2022-10-30T02:05:09.039Z,16.98
2022-10-30T02:07:37.686Z,13.60
2022-10-30T02:10:06.719Z,12.57
2022-10-30T02:12:35.201Z,11.35
2022-10-30T02:15:03.762Z,10.93
2022-10-30T02:17:32.126Z,13.35
2022-10-30T02:20:01.727Z,15.13
2022-10-30T02:22:31.350Z,13.88
2022-10-30T02:24:59.939Z,11.32
2022-10-30T02:27:28.086Z,11.32
2022-10-30T02:29:56.234Z,11.23
2022-10-30T02:32:24.533Z,11.80
2022-10-30T02:34:52.694Z,10.25
2022-10-30T02:37:20.938Z,10.82
2022-10-30T02:39:50.515Z,10.60
2022-10-30T02:42:18.729Z,10.68
2022-10-30T02:44:46.924Z,13.35
2022-10-30T02:47:15.241Z,14.43
2022-10-30T02:49:43.523Z,14.68
2022-10-30T02:52:11.779Z,14.88
2022-10-30T02:54:39.985Z,16.40
2022-10-30T02:57:10.846Z,15.88
2022-10-30T02:59:39.119Z,16.35
2022-10-30T03:02:07.521Z,15.93
2022-10-30T03:04:35.867Z,12.48
2022-10-30T03:07:04.095Z,9.48
2022-10-30T03:09:32.443Z,8.13
2022-10-30T03:12:01.060Z,8.30
2022-10-30T03:14:30.989Z,8.52
2022-10-30T03:16:59.196Z,9.30
2022-10-30T03:19:27.383Z,9.82
2022-10-30T03:21:55.818Z,12.10
2022-10-30T03:24:23.996Z,8.95
2022-10-30T03:26:52.150Z,9.13
2022-10-30T03:29:20.346Z,10.55
2022-10-30T03:31:50.270Z,9.90
2022-10-30T03:34:18.567Z,10.13
2022-10-30T03:36:46.914Z,10.15
2022-10-30T03:39:15.106Z,9.32
2022-10-30T03:41:44.200Z,10.10
2022-10-30T03:44:12.385Z,9.95
2022-10-30T03:46:40.625Z,10.32
2022-10-30T03:49:10.199Z,9.35
2022-10-30T03:51:38.350Z,9.02
2022-10-30T03:54:06.628Z,9.27
2022-10-30T03:56:34.823Z,6.95
2022-10-30T03:59:03.214Z,8.00
2022-10-30T04:01:31.513Z,6.18
2022-10-30T04:03:59.779Z,6.45
2022-10-30T04:06:29.332Z,6.63
2022-10-30T04:08:57.629Z,6.13
2022-10-30T04:11:26.004Z,6.40
2022-10-30T04:13:54.213Z,7.55
2022-10-30T04:16:22.395Z,9.82
2022-10-30T04:18:50.571Z,6.05
2022-10-30T04:21:18.727Z,5.93
2022-10-30T04:23:48.299Z,6.00
2022-10-30T04:26:16.561Z,5.75
2022-10-30T04:28:44.753Z,6.13
2022-10-30T04:31:12.926Z,6.65
2022-10-30T04:33:41.099Z,5.82
2022-10-30T04:36:10.266Z,5.88
2022-10-30T04:38:38.533Z,5.63
2022-10-30T04:41:08.736Z,6.00
2022-10-30T04:43:36.954Z,5.57
2022-10-30T04:46:06.810Z,5.97
2022-10-30T04:48:36.182Z,5.70
2022-10-30T04:51:04.583Z,6.15
2022-10-30T04:53:32.879Z,6.78
2022-10-30T04:56:01.047Z,6.00
2022-10-30T04:58:30.778Z,7.47
2022-10-30T05:01:03.603Z,5.78
2022-10-30T05:03:32.514Z,6.88
2022-10-30T05:06:02.981Z,5.40
2022-10-30T05:08:32.136Z,6.47
2022-10-30T05:11:00.558Z,5.55
2022-10-30T05:13:30.085Z,5.55
2022-10-30T05:15:58.390Z,5.75
2022-10-30T05:18:26.530Z,6.40
2022-10-30T05:20:54.681Z,5.70
2022-10-30T05:23:22.871Z,5.80
2022-10-30T05:25:51.033Z,5.40
2022-10-30T05:28:19.202Z,5.88
2022-10-30T05:30:48.855Z,4.40
2022-10-30T05:33:18.064Z,5.35
2022-10-30T05:35:46.773Z,5.55
2022-10-30T05:38:15.006Z,4.57
2022-10-30T05:40:43.153Z,5.63
2022-10-30T05:43:11.316Z,5.28
2022-10-30T05:45:39.680Z,6.10
2022-10-30T05:48:09.406Z,3.88
2022-10-30T05:50:37.629Z,4.53
2022-10-30T05:53:06.619Z,4.95
2022-10-30T05:55:35.130Z,5.95
2022-10-30T05:58:06.701Z,5.28
2022-10-30T06:00:40.066Z,4.53
2022-10-30T06:03:13.024Z,5.28
2022-10-30T06:05:42.402Z,5.55
2022-10-30T06:08:10.556Z,4.45
2022-10-30T06:10:39.171Z,4.28
2022-10-30T06:13:08.802Z,4.40
2022-10-30T06:15:37.217Z,4.40
2022-10-30T06:18:05.706Z,4.65
2022-10-30T06:20:35.251Z,5.32
2022-10-30T06:23:05.801Z,7.00
2022-10-30T06:25:40.618Z,4.60
2022-10-30T06:28:10.807Z,5.57
2022-10-30T06:30:39.025Z,4.72
2022-10-30T06:33:07.949Z,4.20
2022-10-30T06:35:37.494Z,5.20
2022-10-30T06:38:06.014Z,4.20
2022-10-30T06:40:34.195Z,3.65
2022-10-30T06:43:02.686Z,4.30
2022-10-30T06:45:31.101Z,3.78
2022-10-30T06:48:01.901Z,5.03
2022-10-30T06:50:30.436Z,4.82
2022-10-30T06:53:00.163Z,4.55
2022-10-30T06:55:28.336Z,4.90
2022-10-30T06:57:58.360Z,3.58
2022-10-30T07:00:26.961Z,3.50
2022-10-30T07:03:00.878Z,3.92
2022-10-30T07:05:29.605Z,4.60
2022-10-30T07:07:59.810Z,4.30
2022-10-30T07:10:28.020Z,3.90
2022-10-30T07:12:58.846Z,3.45
2022-10-30T07:15:27.967Z,4.35
2022-10-30T07:17:58.445Z,3.88
2022-10-30T07:20:29.055Z,4.22
2022-10-30T07:22:57.453Z,3.20
2022-10-30T07:25:27.866Z,4.38
2022-10-30T07:27:58.035Z,4.28
2022-10-30T07:30:28.355Z,3.70
2022-10-30T07:33:02.147Z,7.13
2022-10-30T07:35:31.691Z,3.65
2022-10-30T07:38:04.487Z,4.80
2022-10-30T07:40:34.587Z,3.55
2022-10-30T07:43:04.624Z,4.32
2022-10-30T07:45:33.233Z,5.90
2022-10-30T07:48:01.968Z,4.55
2022-10-30T07:50:30.494Z,4.03
2022-10-30T07:52:59.861Z,4.93
2022-10-30T07:55:28.199Z,4.18
2022-10-30T07:57:58.971Z,4.50
2022-10-30T08:00:27.436Z,5.18
2022-10-30T08:02:59.160Z,4.57
2022-10-30T08:05:28.959Z,4.40
2022-10-30T08:07:58.774Z,4.13
2022-10-30T08:10:27.427Z,4.35
2022-10-30T08:12:57.130Z,3.95
2022-10-30T08:15:25.535Z,3.85
2022-10-30T08:17:54.482Z,4.22
2022-10-30T08:20:25.209Z,4.22
2022-10-30T08:22:54.986Z,4.13
2022-10-30T08:25:26.174Z,4.05
2022-10-30T08:27:58.947Z,4.30
2022-10-30T08:30:30.911Z,4.78
2022-10-30T08:33:00.633Z,3.92
2022-10-30T08:35:29.499Z,3.72
2022-10-30T08:37:58.397Z,4.15
2022-10-30T08:40:27.831Z,4.40
2022-10-30T08:42:58.965Z,4.05
2022-10-30T08:45:30.857Z,4.30
2022-10-30T08:48:01.364Z,4.10
2022-10-30T08:50:30.276Z,4.70
2022-10-30T08:53:11.052Z,7.03
2022-10-30T08:55:39.413Z,5.47
2022-10-30T08:58:23.238Z,5.20
2022-10-30T09:00:51.443Z,3.97
2022-10-30T09:03:19.683Z,4.15
2022-10-30T09:05:47.925Z,5.10
2022-10-30T09:08:16.434Z,4.03
2022-10-30T09:10:45.173Z,4.72
2022-10-30T09:13:14.855Z,5.45
2022-10-30T09:15:43.009Z,7.50
2022-10-30T09:18:11.543Z,17.25
2022-10-30T09:20:39.832Z,6.80
2022-10-30T09:23:08.122Z,5.28
2022-10-30T09:25:36.357Z,5.53
2022-10-30T09:28:04.695Z,4.90
2022-10-30T09:30:34.247Z,4.88
2022-10-30T09:33:04.236Z,5.45
2022-10-30T09:35:33.423Z,4.57
2022-10-30T09:38:01.998Z,4.90
2022-10-30T09:40:44.699Z,5.10
2022-10-30T09:43:30.816Z,6.28
2022-10-30T09:46:24.697Z,6.55
2022-10-30T09:49:20.239Z,6.82
2022-10-30T09:52:24.106Z,5.15
2022-10-30T09:55:14.701Z,5.30
2022-10-30T09:57:52.120Z,5.22
2022-10-30T10:00:22.966Z,5.43
2022-10-30T10:03:13.769Z,6.03
2022-10-30T10:05:45.835Z,5.32
2022-10-30T10:08:19.803Z,5.45
2022-10-30T10:10:52.954Z,5.93
2022-10-30T10:13:38.359Z,5.80
2022-10-30T10:16:14.546Z,6.07
2022-10-30T10:18:49.046Z,5.90
2022-10-30T10:21:27.909Z,6.40
2022-10-30T10:23:58.074Z,6.75
2022-10-30T10:26:32.242Z,6.35
2022-10-30T10:29:25.098Z,6.55
2022-10-30T10:32:39.842Z,6.53
2022-10-30T10:35:42.934Z,6.95
2022-10-30T10:38:27.739Z,8.15
2022-10-30T10:41:06.705Z,18.73
2022-10-30T10:43:54.650Z,8.98
2022-10-30T10:46:47.178Z,7.93
2022-10-30T10:49:40.711Z,7.55
2022-10-30T10:52:15.841Z,8.77
2022-10-30T10:54:47.524Z,7.70
2022-10-30T10:57:28.487Z,7.93
2022-10-30T11:00:02.777Z,7.57
2022-10-30T11:02:40.361Z,7.78
2022-10-30T11:05:19.479Z,6.88
2022-10-30T11:07:51.879Z,7.15
2022-10-30T11:10:23.679Z,6.72
2022-10-30T11:12:51.941Z,6.97
2022-10-30T11:15:30.539Z,6.47
2022-10-30T11:18:03.408Z,6.10
2022-10-30T11:20:40.046Z,7.03
2022-10-30T11:23:35.642Z,6.15
2022-10-30T11:26:04.238Z,6.53
2022-10-30T11:28:42.905Z,6.78
2022-10-30T11:31:27.605Z,6.82
2022-10-30T11:33:56.168Z,7.53
2022-10-30T11:36:27.174Z,7.32
2022-10-30T11:39:11.102Z,8.35
2022-10-30T11:41:40.411Z,7.45
2022-10-30T11:44:10.718Z,7.75
2022-10-30T11:46:39.541Z,7.93
2022-10-30T11:49:07.770Z,7.63
2022-10-30T11:51:39.887Z,8.23
2022-10-30T11:54:20.277Z,7.80
2022-10-30T11:56:50.518Z,9.32
2022-10-30T11:59:23.489Z,8.90
2022-10-30T12:02:04.212Z,8.23
2022-10-30T12:04:33.077Z,9.20
2022-10-30T12:07:20.984Z,8.93
2022-10-30T12:09:50.799Z,9.02
2022-10-30T12:12:25.742Z,8.35
2022-10-30T12:14:54.298Z,8.45
2022-10-30T12:17:23.793Z,8.18
2022-10-30T12:19:55.424Z,8.48
2022-10-30T12:22:30.059Z,7.38
2022-10-30T12:25:01.321Z,6.63
2022-10-30T12:27:33.205Z,7.80
2022-10-30T12:30:11.983Z,8.15
2022-10-30T12:32:49.393Z,7.15
2022-10-30T12:35:38.573Z,7.55
2022-10-30T12:38:12.463Z,7.78
2022-10-30T12:40:51.360Z,7.15
2022-10-30T12:43:25.458Z,7.57
2022-10-30T12:46:00.904Z,7.80
2022-10-30T12:48:38.915Z,9.63
2022-10-30T12:51:21.380Z,8.52
2022-10-30T12:53:59.197Z,8.75
2022-10-30T12:56:35.245Z,9.00
2022-10-30T12:59:22.681Z,8.57
2022-10-30T13:01:57.723Z,8.57
2022-10-30T13:04:32.449Z,9.43
2022-10-30T13:07:14.986Z,10.05
2022-10-30T13:10:02.101Z,9.63
2022-10-30T13:12:37.426Z,9.75
2022-10-30T13:15:11.046Z,10.38
2022-10-30T13:17:39.360Z,9.20
2022-10-30T13:20:17.067Z,8.95
2022-10-30T13:22:52.588Z,10.30
2022-10-30T13:25:28.219Z,10.05
2022-10-30T13:28:06.106Z,9.45
2022-10-30T13:30:41.743Z,9.88
2022-10-30T13:33:18.872Z,9.15
2022-10-30T13:35:56.834Z,8.80
2022-10-30T13:38:42.368Z,9.57
2022-10-30T13:41:22.867Z,9.13
2022-10-30T13:44:01.099Z,8.70
2022-10-30T13:46:49.518Z,9.70
2022-10-30T13:49:41.378Z,8.18
2022-10-30T13:52:16.009Z,8.60
2022-10-30T13:54:50.660Z,7.43
2022-10-30T13:57:25.078Z,7.72
2022-10-30T14:00:07.345Z,7.60
2022-10-30T14:02:57.852Z,7.82
2022-10-30T14:05:36.836Z,7.00
2022-10-30T14:08:12.993Z,8.70
2022-10-30T14:10:47.394Z,7.95
2022-10-30T14:13:26.946Z,8.30
2022-10-30T14:16:01.957Z,8.05
2022-10-30T14:19:00.374Z,8.52
2022-10-30T14:21:39.120Z,7.93
2022-10-30T14:24:17.450Z,8.40
2022-10-30T14:26:53.389Z,8.38
2022-10-30T14:29:49.546Z,8.80
2022-10-30T14:32:43.450Z,8.35
2022-10-30T14:35:41.058Z,7.47
2022-10-30T14:38:36.250Z,7.15
2022-10-30T14:41:27.809Z,7.03
2022-10-30T14:44:38.215Z,5.82
2022-10-30T14:47:39.492Z,6.97
2022-10-30T14:50:20.176Z,7.13
2022-10-30T14:53:25.741Z,6.20
2022-10-30T14:56:02.849Z,6.72
2022-10-30T14:58:34.746Z,6.45
2022-10-30T15:01:27.537Z,5.38
2022-10-30T15:04:21.887Z,5.80
2022-10-30T15:07:00.633Z,6.25
2022-10-30T15:09:55.815Z,5.80
2022-10-30T15:12:46.643Z,5.18
2022-10-30T15:15:18.523Z,5.57
2022-10-30T15:17:50.486Z,5.85
2022-10-30T15:20:22.990Z,5.55
2022-10-30T15:22:55.633Z,5.72
2022-10-30T15:25:25.893Z,5.60
2022-10-30T15:27:57.205Z,7.60
2022-10-30T15:30:28.255Z,6.88
2022-10-30T15:32:56.949Z,6.60
2022-10-30T15:35:28.926Z,6.45
2022-10-30T15:38:02.523Z,6.95
2022-10-30T15:40:32.273Z,6.63
2022-10-30T15:43:02.875Z,6.95
2022-10-30T15:45:35.667Z,6.80
2022-10-30T15:48:09.950Z,7.05
2022-10-30T15:50:45.939Z,7.18
2022-10-30T15:53:20.727Z,7.15
2022-10-30T15:55:50.166Z,6.90
2022-10-30T15:58:22.873Z,7.05
2022-10-30T16:00:58.916Z,7.30
2022-10-30T16:03:27.834Z,7.22
2022-10-30T16:06:08.383Z,7.55
2022-10-30T16:08:45.707Z,7.63
2022-10-30T16:11:14.477Z,7.78
2022-10-30T16:13:43.609Z,7.80
2022-10-30T16:16:19.927Z,7.28
2022-10-30T16:18:48.739Z,7.60
2022-10-30T16:21:22.721Z,8.43
2022-10-30T16:23:53.338Z,8.48
2022-10-30T16:26:32.770Z,8.23
2022-10-30T16:29:04.229Z,9.10
2022-10-30T16:31:35.940Z,8.57
2022-10-30T16:34:05.980Z,8.80
2022-10-30T16:36:35.929Z,8.65
2022-10-30T16:39:05.177Z,8.70
2022-10-30T16:41:35.159Z,8.35
2022-10-30T16:44:17.763Z,10.65
2022-10-30T16:46:51.410Z,8.90
2022-10-30T16:49:21.654Z,8.48
2022-10-30T16:51:59.866Z,9.52
2022-10-30T16:54:32.746Z,8.18
2022-10-30T16:57:05.117Z,16.05
2022-10-30T16:59:36.980Z,10.02
2022-10-30T17:02:18.025Z,9.55
2022-10-30T17:04:53.955Z,9.50
2022-10-30T17:07:27.999Z,8.82
2022-10-30T17:09:58.479Z,8.13
2022-10-30T17:12:28.865Z,8.73
2022-10-30T17:15:04.308Z,9.15
2022-10-30T17:17:35.912Z,8.68
2022-10-30T17:22:47.524Z,9.38
2022-10-30T17:25:19.985Z,9.18
2022-10-30T17:27:51.508Z,9.63
2022-10-30T17:30:35.508Z,10.27
2022-10-30T17:33:14.346Z,9.40
2022-10-30T17:35:45.666Z,10.13
2022-10-30T17:38:15.345Z,9.88
2022-10-30T17:40:43.644Z,11.40
2022-10-30T17:43:14.547Z,10.63
2022-10-30T17:45:43.467Z,10.43
2022-10-30T17:48:15.192Z,11.05
2022-10-30T17:50:44.941Z,9.95
2022-10-30T17:53:22.170Z,10.10
2022-10-30T17:55:57.424Z,9.52
2022-10-30T17:58:25.734Z,9.32
2022-10-30T18:00:54.076Z,9.50
2022-10-30T18:03:22.390Z,10.20
2022-10-30T18:05:52.179Z,9.90
2022-10-30T18:08:21.855Z,10.10
2022-10-30T18:10:50.493Z,9.95
2022-10-30T18:13:19.542Z,9.40
2022-10-30T18:15:54.222Z,9.85
2022-10-30T18:18:22.498Z,9.15
2022-10-30T18:20:50.859Z,8.80
2022-10-30T18:26:16.851Z,9.75
2022-10-30T18:28:46.240Z,9.48
2022-10-30T18:31:17.954Z,9.13
2022-10-30T18:33:47.228Z,9.60
2022-10-30T18:36:17.688Z,9.48
2022-10-30T18:38:47.483Z,8.85
2022-10-30T18:41:18.983Z,11.40
2022-10-30T18:43:47.662Z,11.63
2022-10-30T18:46:17.019Z,8.75
2022-10-30T18:48:45.591Z,9.60
2022-10-30T18:51:19.381Z,8.98
2022-10-30T18:53:52.520Z,8.25
2022-10-30T18:56:22.839Z,8.10
2022-10-30T18:58:55.030Z,6.80
2022-10-30T19:01:27.311Z,8.10
2022-10-30T19:03:55.666Z,7.43
2022-10-30T19:06:25.803Z,6.80
2022-10-30T19:08:55.390Z,6.35
2022-10-30T19:11:25.310Z,7.75
2022-10-30T19:13:54.557Z,6.57
2022-10-30T19:16:25.469Z,7.80
2022-10-30T19:18:54.438Z,7.35
2022-10-30T19:21:26.093Z,8.15
2022-10-30T19:23:56.208Z,8.43
2022-10-30T19:26:24.474Z,8.73
2022-10-30T19:28:52.674Z,8.27
2022-10-30T19:31:21.431Z,8.20
2022-10-30T19:33:54.510Z,8.20
2022-10-30T19:36:31.834Z,7.68
2022-10-30T19:39:07.543Z,7.47
2022-10-30T19:41:37.611Z,8.23
2022-10-30T19:44:06.397Z,7.90
2022-10-30T19:46:34.638Z,7.88
2022-10-30T19:49:13.398Z,9.52
2022-10-30T19:51:41.663Z,8.27
2022-10-30T19:54:11.236Z,8.15
2022-10-30T19:56:39.718Z,8.52
2022-10-30T19:59:10.911Z,8.00
2022-10-30T20:01:41.450Z,7.53
2022-10-30T20:04:09.923Z,7.60
2022-10-30T20:06:38.141Z,6.78
2022-10-30T20:09:06.487Z,7.60
2022-10-30T20:11:36.062Z,8.95
2022-10-30T20:14:04.254Z,7.20
2022-10-30T20:16:32.484Z,9.63
2022-10-30T20:19:01.103Z,9.32
2022-10-30T20:21:29.393Z,9.60
2022-10-30T20:23:57.600Z,8.07
2022-10-30T20:26:30.059Z,8.70
2022-10-30T20:29:03.508Z,8.60
2022-10-30T20:31:31.873Z,7.70
2022-10-30T20:34:00.131Z,7.35
2022-10-30T20:36:28.378Z,8.10
2022-10-30T20:38:56.634Z,8.63
2022-10-30T20:41:27.229Z,8.20
2022-10-30T20:43:55.423Z,8.48
2022-10-30T20:46:25.115Z,8.02
2022-10-30T20:48:53.328Z,8.73
2022-10-30T20:51:21.535Z,9.57
2022-10-30T20:53:49.766Z,12.38
2022-10-30T20:56:17.953Z,21.00
2022-10-30T20:58:46.278Z,20.77
2022-10-30T21:01:14.871Z,9.38
2022-10-30T21:03:44.709Z,10.52
2022-10-30T21:06:13.354Z,10.68
2022-10-30T21:08:41.656Z,10.55
2022-10-30T21:11:10.347Z,9.10
2022-10-30T21:13:38.662Z,9.32
2022-10-30T21:16:09.989Z,9.85
2022-10-30T21:18:38.166Z,10.52
2022-10-30T21:21:11.660Z,10.18
2022-10-30T21:23:41.200Z,10.13
2022-10-30T21:26:11.753Z,8.85
2022-10-30T21:28:40.491Z,8.98
2022-10-30T21:31:12.438Z,14.40
2022-10-30T21:33:41.555Z,14.05
2022-10-30T21:36:15.175Z,14.77
2022-10-30T21:38:47.040Z,15.82
2022-10-30T21:41:17.716Z,11.27
2022-10-30T21:43:50.916Z,10.15
2022-10-30T21:46:19.578Z,10.25
2022-10-30T21:48:48.221Z,10.48
2022-10-30T21:51:22.524Z,10.65
2022-10-30T21:53:51.444Z,11.32
2022-10-30T21:56:22.329Z,11.00
2022-10-30T21:58:51.362Z,10.50
2022-10-30T22:01:22.848Z,10.65
2022-10-30T22:03:51.272Z,11.18
2022-10-30T22:06:22.987Z,12.45
2022-10-30T22:08:53.794Z,12.90
2022-10-30T22:11:23.570Z,16.60
2022-10-30T22:13:55.471Z,15.77
2022-10-30T22:16:24.609Z,23.13
2022-10-30T22:18:53.124Z,25.52
2022-10-30T22:21:22.742Z,36.33
2022-10-30T22:23:51.012Z,14.32
2022-10-30T22:26:22.926Z,14.43
2022-10-30T22:28:54.695Z,14.32
2022-10-30T22:31:28.557Z,19.60
2022-10-30T22:33:57.279Z,17.70
2022-10-30T22:36:30.607Z,12.32
2022-10-30T22:39:01.750Z,13.52
2022-10-30T22:41:34.775Z,13.30
2022-10-30T22:44:08.365Z,13.05
2022-10-30T22:46:37.848Z,12.43
2022-10-30T22:49:07.140Z,12.15
2022-10-30T22:51:39.835Z,13.85
2022-10-30T22:54:12.137Z,28.33
2022-10-30T22:56:41.764Z,29.27
2022-10-30T22:59:13.182Z,23.98
2022-10-30T23:01:45.128Z,22.02
2022-10-30T23:04:15.045Z,23.33
2022-10-30T23:06:45.041Z,23.08
2022-10-30T23:09:21.167Z,23.13
2022-10-30T23:11:49.689Z,21.23
2022-10-30T23:14:18.989Z,18.02
2022-10-30T23:16:47.240Z,15.88
2022-10-30T23:19:15.468Z,14.13
2022-10-30T23:21:45.231Z,14.27
2022-10-30T23:24:13.444Z,12.75
2022-10-30T23:26:42.181Z,13.05
2022-10-30T23:29:13.296Z,12.95
2022-10-30T23:31:43.435Z,12.88
2022-10-30T23:34:14.794Z,11.13
2022-10-30T23:36:45.283Z,11.82
2022-10-30T23:39:17.334Z,11.43
2022-10-30T23:41:46.061Z,11.05
2022-10-30T23:44:16.802Z,10.45
2022-10-30T23:46:45.745Z,11.57
2022-10-30T23:49:14.286Z,10.43
2022-10-30T23:51:44.074Z,11.05
2022-10-30T23:54:12.673Z,10.65
2022-10-30T23:56:40.974Z,10.48
2022-10-30T23:59:10.431Z,10.07
